Time;durP1;ratioP1;P1;durP2;ratioP2;P2;SDS_P1;SDS_P2;PMS_P1;PMS_P2;Temp;Humidity;BMP_temperature;BMP_pressure;BME280_temperature;BME280_humidity;BME280_pressure;Samples;Min_cycle;Max_cycle;Signal;HPM_P1;HPM_P2
2022/12/14 00:02:45;;;;;;;145.85;62.45;;;;;;;-8.13;72.08;99977.80;2011011;88;32943;-64
2022/12/14 00:05:47;;;;;;;137.65;61.48;;;;;;;-8.13;72.16;99975.61;2011060;88;29964;-64
2022/12/14 00:08:51;;;;;;;158.47;67.47;;;;;;;-8.15;72.20;99968.20;2011078;88;27837;-65
2022/12/14 00:11:52;;;;;;;153.10;64.23;;;;;;;-8.17;72.20;99967.28;2011336;88;29333;-64
2022/12/14 00:14:54;;;;;;;155.67;64.95;;;;;;;-8.22;72.21;99960.70;2010993;88;31002;-64
2022/12/14 00:17:56;;;;;;;151.75;62.65;;;;;;;-8.29;72.23;99948.45;2010845;88;32939;-65
2022/12/14 00:21:05;;;;;;;141.97;59.05;;;;;;;-8.30;72.29;99947.55;2063200;86;30391;-64
2022/12/14 00:24:06;;;;;;;146.65;59.53;;;;;;;-8.32;72.40;99936.69;2062726;86;27640;-64
2022/12/14 00:27:08;;;;;;;152.15;63.70;;;;;;;-8.34;72.41;99939.67;2063109;86;29500;-65
2022/12/14 00:30:15;;;;;;;143.22;62.67;;;;;;;-8.42;72.42;99939.07;2063171;86;31001;-64
2022/12/14 00:33:17;;;;;;;156.47;63.65;;;;;;;-8.45;72.50;99939.44;2062790;86;33808;-64
2022/12/14 00:36:20;;;;;;;161.10;65.95;;;;;;;-8.47;72.52;99942.02;2063214;86;29397;-64
2022/12/14 00:39:22;;;;;;;173.20;66.82;;;;;;;-8.49;72.56;99943.73;2063325;86;27692;-64
2022/12/14 00:42:23;;;;;;;167.10;66.57;;;;;;;-8.52;72.62;99946.25;2063335;86;28645;-64
2022/12/14 00:45:25;;;;;;;156.80;69.03;;;;;;;-8.54;72.58;99937.55;2063360;86;30522;-63
2022/12/14 00:48:27;;;;;;;157.43;66.95;;;;;;;-8.56;72.65;99939.23;2064511;86;32954;-63
2022/12/14 00:51:28;;;;;;;154.95;65.32;;;;;;;-8.60;72.71;99936.14;2065072;86;29338;-63
2022/12/14 00:54:30;;;;;;;152.70;62.67;;;;;;;-8.63;72.67;99948.61;2065056;86;27663;-63
2022/12/14 00:57:31;;;;;;;152.72;64.42;;;;;;;-8.65;72.69;99946.39;2063225;86;29661;-64
2022/12/14 01:00:33;;;;;;;152.78;65.20;;;;;;;-8.67;72.68;99935.53;2063396;86;31009;-64
2022/12/14 01:03:35;;;;;;;150.42;64.77;;;;;;;-8.70;72.71;99928.12;2063356;86;33117;-63
2022/12/14 01:06:36;;;;;;;155.20;65.37;;;;;;;-8.71;72.77;99932.86;2063171;86;29313;-63
2022/12/14 01:09:38;;;;;;;164.03;65.25;;;;;;;-8.72;72.79;99944.08;2063356;86;28278;-63
2022/12/14 01:12:39;;;;;;;153.10;63.35;;;;;;;-8.75;72.75;99938.81;2063241;86;28634;-63
2022/12/14 01:15:41;;;;;;;140.50;61.05;;;;;;;-8.78;72.74;99937.88;2063240;86;30984;-64
2022/12/14 01:18:43;;;;;;;159.93;66.20;;;;;;;-8.82;72.67;99938.64;2065406;86;32948;-63
2022/12/14 01:21:44;;;;;;;158.47;64.72;;;;;;;-8.89;72.72;99933.73;1996934;89;29421;-63
2022/12/14 01:24:46;;;;;;;164.45;65.92;;;;;;;-8.92;72.75;99936.25;2011089;88;27892;-64
2022/12/14 01:27:48;;;;;;;158.72;61.95;;;;;;;-8.95;72.71;99927.13;2010980;88;28670;-64
2022/12/14 01:30:50;;;;;;;160.40;63.30;;;;;;;-8.99;72.75;99935.23;2010965;88;31690;-65
2022/12/14 01:33:53;;;;;;;155.18;63.15;;;;;;;-9.03;72.71;99930.41;2010535;88;33677;-64
2022/12/14 01:36:55;;;;;;;151.90;60.10;;;;;;;-9.08;72.67;99924.22;2010842;88;29133;-63
2022/12/14 01:39:56;;;;;;;157.10;61.85;;;;;;;-9.11;72.67;99925.47;2010936;88;27669;-64
2022/12/14 01:42:58;;;;;;;157.40;61.20;;;;;;;-9.12;72.65;99922.81;2011029;88;28730;-64
2022/12/14 01:46:00;;;;;;;140.57;58.05;;;;;;;-9.14;72.71;99921.50;2010983;88;31038;-65
2022/12/14 01:49:13;;;;;;;142.80;58.83;;;;;;;-9.18;72.61;99921.82;2010931;88;33726;-65
2022/12/14 01:52:47;;;;;;;150.82;60.80;;;;;;;-9.20;72.51;99914.45;2010901;88;29335;-64
2022/12/14 01:55:52;;;;;;;152.02;62.00;;;;;;;-9.22;72.37;99912.23;1926579;92;27688;-63
2022/12/14 01:58:56;;;;;;;148.43;60.38;;;;;;;-9.26;72.50;99903.05;1926468;92;29512;-63
2022/12/14 02:01:59;;;;;;;151.18;59.13;;;;;;;-9.33;72.51;99900.30;1926166;91;31089;-63
2022/12/14 02:05:03;;;;;;;137.57;59.48;;;;;;;-9.37;72.52;99910.56;1906756;92;33768;-64
2022/12/14 02:08:05;;;;;;;149.38;60.80;;;;;;;-9.41;72.59;99911.32;1906934;92;30517;-64
2022/12/14 02:11:06;;;;;;;138.18;56.88;;;;;;;-9.44;72.64;99907.34;1926417;92;27816;-64
2022/12/14 02:14:08;;;;;;;134.90;57.30;;;;;;;-9.46;72.72;99914.67;1926359;92;28657;-65
2022/12/14 02:17:12;;;;;;;138.30;53.05;;;;;;;-9.47;72.80;99902.54;1926424;91;31040;-62
2022/12/14 02:20:15;;;;;;;136.97;57.85;;;;;;;-9.51;72.68;99898.55;1926296;92;32375;-62
2022/12/14 02:23:47;;;;;;;135.40;54.38;;;;;;;-9.53;72.79;99897.22;1926448;92;29468;-62
2022/12/14 02:27:14;;;;;;;118.50;48.60;;;;;;;-9.55;72.77;99892.41;1978039;88;27704;-63
2022/12/14 02:30:21;;;;;;;131.95;51.60;;;;;;;-9.58;72.86;99888.84;2010627;88;29579;-63
2022/12/14 02:33:31;;;;;;;143.07;56.48;;;;;;;-9.61;72.89;99885.77;2010294;88;32268;-64
2022/12/14 02:36:56;;;;;;;129.63;53.98;;;;;;;-9.63;72.87;99889.63;2010766;88;32116;-64
2022/12/14 02:40:22;;;;;;;137.50;52.62;;;;;;;-9.63;72.89;99892.63;1940697;91;29664;-64
2022/12/14 02:43:32;;;;;;;120.70;49.33;;;;;;;-9.64;72.88;99886.98;1941201;91;27755;-63
2022/12/14 02:47:05;;;;;;;116.00;48.70;;;;;;;-9.66;72.85;99886.05;1941096;91;28938;-64
2022/12/14 02:50:29;;;;;;;124.47;50.43;;;;;;;-9.67;72.72;99887.79;1914211;93;32209;-63
2022/12/14 02:54:00;;;;;;;133.77;52.37;;;;;;;-9.69;72.68;99889.89;1914595;93;33660;-63
2022/12/14 02:57:34;;;;;;;132.00;55.92;;;;;;;-9.73;72.62;99878.98;1914993;93;29688;-63
2022/12/14 03:00:37;;;;;;;134.90;55.33;;;;;;;-9.81;72.59;99877.05;1914372;93;27771;-63
2022/12/14 03:03:39;;;;;;;141.53;54.10;;;;;;;-9.85;72.62;99873.06;1961108;90;29213;-64
2022/12/14 03:06:58;;;;;;;139.88;55.05;;;;;;;-9.89;72.70;99877.70;1961080;90;31119;-63
2022/12/14 03:10:30;;;;;;;127.60;52.90;;;;;;;-9.95;72.67;99887.08;1941088;90;33348;-64
2022/12/14 03:13:43;;;;;;;130.78;54.60;;;;;;;-9.99;72.76;99883.94;1953008;90;30128;-63
2022/12/14 03:16:49;;;;;;;134.37;55.92;;;;;;;-9.98;72.81;99879.63;1991663;89;27716;-63
2022/12/14 03:20:08;;;;;;;145.10;57.67;;;;;;;-10.01;72.90;99882.16;1997479;88;28653;-63
2022/12/14 03:23:14;;;;;;;151.50;57.48;;;;;;;-10.03;73.03;99871.73;2026974;87;31701;-63
2022/12/14 03:26:27;;;;;;;133.05;53.55;;;;;;;-10.03;73.14;99863.96;2041310;86;33801;-63
2022/12/14 03:29:36;;;;;;;141.22;55.58;;;;;;;-10.03;73.21;99870.87;2068100;85;30109;-63
2022/12/14 03:32:52;;;;;;;137.95;54.42;;;;;;;-10.05;73.26;99860.88;2067902;85;28217;-63
2022/12/14 03:36:07;;;;;;;130.57;50.83;;;;;;;-10.06;73.36;99862.58;2039644;87;29503;-64
2022/12/14 03:39:26;;;;;;;142.30;57.55;;;;;;;-10.07;73.40;99859.13;2005380;88;31417;-63
2022/12/14 03:42:36;;;;;;;143.28;55.75;;;;;;;-10.04;73.46;99861.34;2005412;88;33026;-63
2022/12/14 03:46:07;;;;;;;134.47;54.23;;;;;;;-10.07;73.41;99856.94;2005173;88;30143;-64
2022/12/14 03:49:19;;;;;;;127.87;51.98;;;;;;;-10.06;73.46;99856.11;2005356;88;28215;-63
2022/12/14 03:52:29;;;;;;;119.35;49.70;;;;;;;-10.08;73.46;99850.00;2004577;88;28547;-63
2022/12/14 03:55:48;;;;;;;134.32;51.13;;;;;;;-10.08;73.54;99852.19;2039909;85;31846;-64
2022/12/14 03:58:58;;;;;;;129.95;53.40;;;;;;;-10.07;73.55;99846.58;2048214;86;33028;-63
2022/12/14 04:02:14;;;;;;;113.65;43.10;;;;;;;-10.10;73.45;99847.38;2039490;87;30119;-64
2022/12/14 04:05:32;;;;;;;130.95;51.13;;;;;;;-10.11;73.51;99849.95;1973591;89;27767;-64
2022/12/14 04:08:48;;;;;;;125.60;53.10;;;;;;;-10.15;73.44;99845.52;2004800;88;29131;-66
2022/12/14 04:19:00;;;;;;;135.30;54.88;;;;;;;-10.16;73.44;99830.81;2034589;87;29355;-66
2022/12/14 04:22:06;;;;;;;136.85;55.80;;;;;;;-10.17;73.47;99823.44;1967635;90;27708;-65
2022/12/14 04:32:23;;;;;;;164.47;63.50;;;;;;;-10.25;73.45;99809.42;2000503;89;33045;-66
2022/12/14 04:35:37;;;;;;;147.75;62.23;;;;;;;-10.26;73.52;99803.78;1969165;89;30099;-65
2022/12/14 04:38:41;;;;;;;153.97;61.45;;;;;;;-10.27;73.56;99811.98;2000794;89;27710;-64
2022/12/14 04:41:45;;;;;;;169.47;66.35;;;;;;;-10.27;73.59;99808.11;1967149;90;29101;-64
2022/12/14 04:44:53;;;;;;;161.07;64.20;;;;;;;-10.26;73.60;99808.56;1980260;89;31039;-65
2022/12/14 04:48:12;;;;;;;158.22;61.00;;;;;;;-10.24;73.67;99812.05;2000413;89;32987;-64
2022/12/14 04:51:30;;;;;;;174.68;65.45;;;;;;;-10.23;73.53;99812.50;2000242;89;29410;-65
2022/12/14 04:54:51;;;;;;;164.45;67.70;;;;;;;-10.19;73.70;99818.66;1996854;89;27790;-64
2022/12/14 04:58:00;;;;;;;148.53;63.23;;;;;;;-10.17;73.67;99816.10;1992390;89;28660;-65
2022/12/14 05:01:45;;;;;;;161.07;66.22;;;;;;;-10.15;73.68;99804.07;2025784;87;32048;-64
2022/12/14 05:05:21;;;;;;;172.87;67.82;;;;;;;-10.15;73.63;99804.07;1996052;89;32970;-65
2022/12/14 05:08:34;;;;;;;158.27;63.35;;;;;;;-10.16;73.66;99787.64;1936908;91;30475;-65
2022/12/14 05:11:46;;;;;;;163.07;66.45;;;;;;;-10.14;73.70;99782.52;1975804;89;27625;-65
2022/12/14 05:15:11;;;;;;;162.88;66.67;;;;;;;-10.13;73.72;99794.20;1967318;90;28639;-66
2022/12/14 05:18:13;;;;;;;156.18;68.80;;;;;;;-10.12;73.77;99791.20;1979908;89;30447;-66
2022/12/14 05:24:35;;;;;;;175.82;64.47;;;;;;;-10.14;73.77;99782.08;2039235;87;29482;-66
2022/12/14 05:27:37;;;;;;;164.67;65.40;;;;;;;-10.12;73.91;99776.53;2039503;87;27641;-66
2022/12/14 05:30:39;;;;;;;154.27;61.50;;;;;;;-10.12;73.88;99777.82;2039385;87;28850;-66
2022/12/14 05:33:40;;;;;;;166.85;64.85;;;;;;;-10.13;74.01;99781.25;2039433;87;31031;-66
2022/12/14 05:36:42;;;;;;;161.45;69.22;;;;;;;-10.10;74.01;99786.51;2039354;87;33760;-66
2022/12/14 05:39:44;;;;;;;174.20;68.75;;;;;;;-10.05;74.12;99780.14;2039384;87;29957;-65
2022/12/14 05:42:48;;;;;;;172.85;64.72;;;;;;;-10.01;74.08;99772.05;2039389;87;27731;-66
2022/12/14 05:45:50;;;;;;;172.87;63.85;;;;;;;-10.01;74.10;99774.20;2039665;86;28634;-66
2022/12/14 05:48:51;;;;;;;167.15;67.72;;;;;;;-9.99;74.11;99777.72;2039523;87;31041;-66
2022/12/14 05:51:53;;;;;;;149.40;59.03;;;;;;;-9.99;74.10;99766.06;2039484;87;32998;-65
2022/12/14 05:54:54;;;;;;;162.05;66.30;;;;;;;-9.98;74.15;99760.04;2037628;87;29360;-65
2022/12/14 05:57:56;;;;;;;160.28;66.77;;;;;;;-9.98;74.05;99757.45;2037825;87;27662;-66
2022/12/14 06:01:03;;;;;;;162.82;63.60;;;;;;;-9.98;74.04;99760.04;2037621;87;28643;-65
2022/12/14 06:04:05;;;;;;;169.22;72.62;;;;;;;-9.97;74.11;99758.31;2037583;87;31024;-65
2022/12/14 06:07:09;;;;;;;159.12;67.25;;;;;;;-9.95;74.12;99758.83;2037552;87;33094;-65
2022/12/14 06:10:11;;;;;;;158.40;65.67;;;;;;;-9.95;74.11;99752.75;2017025;87;29392;-65
2022/12/14 06:13:13;;;;;;;155.52;65.60;;;;;;;-9.92;74.12;99755.42;2037823;87;27716;-65
2022/12/14 06:16:21;;;;;;;154.97;63.00;;;;;;;-9.92;74.04;99760.17;2037468;87;28743;-66
2022/12/14 06:19:22;;;;;;;158.15;65.60;;;;;;;-9.92;73.99;99754.98;2037461;86;31905;-66
2022/12/14 06:22:24;;;;;;;149.38;58.50;;;;;;;-9.92;73.92;99754.12;2037671;87;33034;-65
2022/12/14 06:25:26;;;;;;;157.18;66.62;;;;;;;-9.94;73.96;99748.92;2037619;87;29360;-65
2022/12/14 06:28:27;;;;;;;154.85;64.75;;;;;;;-9.96;73.99;99747.11;2037662;87;27688;-66
2022/12/14 06:31:31;;;;;;;157.03;63.20;;;;;;;-9.99;73.93;99740.16;2037655;87;28634;-65
2022/12/14 06:34:33;;;;;;;148.22;64.50;;;;;;;-9.99;74.03;99737.97;2037544;87;31038;-64
2022/12/14 06:37:34;;;;;;;164.60;64.75;;;;;;;-10.01;74.06;99739.23;2037663;87;32989;-65
2022/12/14 06:40:36;;;;;;;152.30;64.35;;;;;;;-9.99;74.12;99731.08;2037643;87;29322;-66
2022/12/14 06:43:38;;;;;;;158.52;64.65;;;;;;;-9.98;74.13;99732.84;2037784;87;27708;-65
2022/12/14 06:46:40;;;;;;;160.20;64.70;;;;;;;-9.96;74.11;99722.50;2037627;87;28618;-65
2022/12/14 06:49:41;;;;;;;171.35;66.60;;;;;;;-9.93;74.19;99730.34;2038060;87;31078;-65
2022/12/14 06:52:43;;;;;;;154.72;61.02;;;;;;;-9.87;74.15;99730.91;2039445;86;33813;-65
2022/12/14 06:55:45;;;;;;;166.37;65.78;;;;;;;-9.86;74.06;99721.00;2039350;87;29332;-65
2022/12/14 06:58:47;;;;;;;155.43;63.38;;;;;;;-9.84;74.08;99728.40;2039405;87;27692;-65
2022/12/14 07:01:48;;;;;;;151.30;62.78;;;;;;;-9.84;73.94;99724.52;2039367;87;28823;-66
2022/12/14 07:04:50;;;;;;;152.27;59.33;;;;;;;-9.85;73.95;99722.76;2039601;86;31092;-65
2022/12/14 07:07:51;;;;;;;146.50;62.25;;;;;;;-9.87;74.01;99725.33;2039442;86;33719;-65
2022/12/14 07:10:53;;;;;;;173.00;64.32;;;;;;;-9.86;74.07;99723.19;2039323;87;29324;-65
2022/12/14 07:13:55;;;;;;;150.57;61.63;;;;;;;-9.81;74.15;99718.97;2039637;87;27716;-66
2022/12/14 07:16:57;;;;;;;141.65;57.25;;;;;;;-9.78;74.11;99719.05;2039307;87;29491;-65
2022/12/14 07:19:58;;;;;;;154.82;63.25;;;;;;;-9.75;74.04;99722.55;2038160;87;31142;-65
2022/12/14 07:23:00;;;;;;;159.63;62.88;;;;;;;-9.72;74.11;99713.13;2015261;88;33626;-64
2022/12/14 07:26:12;;;;;;;153.00;60.70;;;;;;;-9.67;74.09;99716.70;2070545;85;29325;-65
2022/12/14 07:29:15;;;;;;;150.40;60.25;;;;;;;-9.67;73.96;99712.81;2033144;87;27689;-65
2022/12/14 07:32:17;;;;;;;160.48;66.00;;;;;;;-9.63;74.15;99709.45;1998886;89;29499;-66
2022/12/14 07:35:18;;;;;;;176.60;69.10;;;;;;;-9.56;74.18;99708.28;2032724;87;32065;-66
2022/12/14 07:38:20;;;;;;;168.22;66.70;;;;;;;-9.48;74.28;99708.91;1998739;87;33729;-65
2022/12/14 07:41:25;;;;;;;171.55;68.52;;;;;;;-9.42;74.13;99696.92;1997169;88;30230;-66
2022/12/14 07:44:27;;;;;;;185.75;70.97;;;;;;;-9.33;74.33;99699.29;2011159;88;27700;-65
2022/12/14 07:47:29;;;;;;;169.20;67.80;;;;;;;-9.27;74.27;99697.24;2011718;88;28646;-66
2022/12/14 07:50:31;;;;;;;166.75;68.62;;;;;;;-9.20;74.33;99695.64;2012226;88;31102;-65
2022/12/14 07:53:33;;;;;;;160.55;67.60;;;;;;;-9.10;74.38;99696.30;2012549;88;33115;-66
2022/12/14 07:56:38;;;;;;;156.00;60.38;;;;;;;-8.98;74.53;99687.86;2012495;87;30129;-67
2022/12/14 07:59:42;;;;;;;149.12;63.42;;;;;;;-8.88;74.34;99689.81;2011733;88;27609;-66
2022/12/14 08:02:44;;;;;;;161.15;64.07;;;;;;;-8.84;74.05;99688.13;2012635;88;28659;-67
2022/12/14 08:05:45;;;;;;;163.30;68.78;;;;;;;-8.83;74.02;99690.30;2012511;88;31038;-67
2022/12/14 08:08:47;;;;;;;177.32;70.62;;;;;;;-8.79;73.97;99685.62;2011496;87;32941;-66
2022/12/14 08:11:49;;;;;;;164.85;67.12;;;;;;;-8.74;74.04;99688.75;2012501;88;29351;-67
2022/12/14 08:14:51;;;;;;;168.07;72.12;;;;;;;-8.71;73.94;99688.81;2012518;88;27957;-66
2022/12/14 08:17:53;;;;;;;165.77;66.75;;;;;;;-8.64;74.07;99691.53;2012067;87;28657;-66
2022/12/14 08:20:54;;;;;;;169.13;69.03;;;;;;;-8.55;74.17;99694.28;2010982;88;31082;-67
2022/12/14 08:23:56;;;;;;;174.87;72.90;;;;;;;-8.48;74.03;99687.47;2011815;88;33000;-65
2022/12/14 08:26:58;;;;;;;182.37;71.45;;;;;;;-8.42;74.00;99683.22;2063463;86;29359;-65
2022/12/14 08:30:00;;;;;;;172.30;70.15;;;;;;;-8.35;73.93;99685.48;2065176;86;27648;-65
2022/12/14 08:33:02;;;;;;;173.90;73.25;;;;;;;-8.28;73.86;99680.86;2065173;86;29292;-66
2022/12/14 08:36:09;;;;;;;169.45;68.60;;;;;;;-8.19;74.00;99681.87;2064747;86;31072;-66
2022/12/14 08:39:12;;;;;;;169.15;70.75;;;;;;;-8.09;73.97;99682.02;2064854;86;32397;-65
2022/12/14 08:42:13;;;;;;;177.43;70.45;;;;;;;-8.00;73.80;99683.03;2065080;84;28734;-66
2022/12/14 08:45:15;;;;;;;181.72;72.58;;;;;;;-8.00;73.47;99676.53;2065152;84;27620;-65
2022/12/14 08:48:17;;;;;;;169.50;71.57;;;;;;;-7.96;73.62;99678.34;2064177;86;28701;-66
2022/12/14 08:51:20;;;;;;;182.30;71.65;;;;;;;-7.94;73.54;99678.80;2063384;86;31443;-62
2022/12/14 08:54:23;;;;;;;175.05;73.37;;;;;;;-7.87;73.65;99677.16;2063291;86;33816;-62
2022/12/14 08:57:24;;;;;;;177.68;73.12;;;;;;;-7.81;73.57;99676.38;2063324;86;29335;-61
2022/12/14 09:00:26;;;;;;;171.57;74.27;;;;;;;-7.77;73.55;99669.52;2063538;86;27471;-61
2022/12/14 09:03:28;;;;;;;181.45;78.40;;;;;;;-7.66;73.70;99663.59;2063143;86;29111;-61
2022/12/14 09:06:31;;;;;;;177.80;72.82;;;;;;;-7.59;73.52;99667.14;2063088;86;31885;-61
2022/12/14 09:09:36;;;;;;;186.07;75.62;;;;;;;-7.57;73.41;99661.98;2064882;86;32962;-61
2022/12/14 09:12:38;;;;;;;182.07;75.25;;;;;;;-7.49;73.58;99664.24;2065378;84;29677;-61
2022/12/14 09:15:40;;;;;;;175.82;73.72;;;;;;;-7.43;73.61;99665.64;2065168;86;27705;-61
2022/12/14 09:18:43;;;;;;;176.40;76.57;;;;;;;-7.33;73.55;99654.48;2064241;86;29487;-61
2022/12/14 09:21:45;;;;;;;172.28;76.77;;;;;;;-7.22;73.69;99650.71;2067590;85;31037;-60
2022/12/14 09:24:49;;;;;;;192.62;84.22;;;;;;;-7.13;73.60;99647.78;2033035;87;33343;-60
2022/12/14 09:27:51;;;;;;;172.22;69.40;;;;;;;-7.01;73.59;99644.02;2033139;87;29333;-60
2022/12/14 09:30:59;;;;;;;155.43;71.15;;;;;;;-6.86;73.70;99631.56;2033072;87;27632;-60
2022/12/14 09:34:00;;;;;;;157.40;69.62;;;;;;;-6.72;73.75;99623.90;2033024;87;28671;-60
2022/12/14 09:37:06;;;;;;;180.00;76.55;;;;;;;-6.53;73.95;99614.50;1998401;89;32003;-60
2022/12/14 09:40:10;;;;;;;165.47;73.78;;;;;;;-6.32;74.01;99606.42;1999042;87;33035;-60
2022/12/14 09:43:17;;;;;;;154.45;68.52;;;;;;;-6.14;73.84;99599.19;1999059;89;30111;-60
2022/12/14 09:46:24;;;;;;;177.97;76.45;;;;;;;-6.00;73.43;99593.62;1998116;88;27616;-60
2022/12/14 09:49:43;;;;;;;175.32;77.40;;;;;;;-5.88;73.50;99581.48;1983692;89;28600;-60
2022/12/14 09:52:58;;;;;;;185.25;78.25;;;;;;;-5.72;73.66;99584.61;1982948;89;31439;-61
2022/12/14 09:56:00;;;;;;;156.15;68.22;;;;;;;-5.53;73.44;99573.81;1982476;89;32835;-61
2022/12/14 09:59:02;;;;;;;165.52;73.25;;;;;;;-5.38;73.26;99570.84;2029076;87;30135;-61
2022/12/14 10:02:34;;;;;;;173.07;77.17;;;;;;;-5.16;73.41;99566.55;2069453;86;28337;-61
2022/12/14 10:06:23;;;;;;;170.22;74.07;;;;;;;-5.04;73.14;99574.41;2032879;87;28700;-60
2022/12/14 10:09:55;;;;;;;187.80;81.53;;;;;;;-4.88;73.15;99568.75;2012666;88;32257;-59
2022/12/14 10:13:21;;;;;;;174.20;75.28;;;;;;;-4.70;73.18;99557.03;2012716;88;33773;-59
2022/12/14 10:16:49;;;;;;;152.65;65.45;;;;;;;-4.52;73.14;99540.04;2012131;88;29382;-60
2022/12/14 10:19:58;;;;;;;150.27;65.70;;;;;;;-4.37;72.08;99530.44;2012696;88;27729;-58
2022/12/14 10:23:01;;;;;;;167.62;72.82;;;;;;;-4.29;72.02;99533.89;2002691;88;28670;-58
2022/12/14 10:26:10;;;;;;;157.88;67.67;;;;;;;-4.19;72.30;99533.44;2000584;88;31893;-59
2022/12/14 10:29:29;;;;;;;171.15;76.70;;;;;;;-4.14;71.35;99510.36;2000587;89;32972;-59
2022/12/14 10:32:39;;;;;;;148.95;67.10;;;;;;;-4.08;72.04;99506.84;2000011;87;29281;-60
2022/12/14 10:35:52;;;;;;;144.47;61.90;;;;;;;-4.00;71.58;99512.91;2000916;87;27708;-58
2022/12/14 10:39:02;;;;;;;136.97;61.13;;;;;;;-3.93;71.46;99499.37;2000725;87;28885;-58
2022/12/14 10:42:18;;;;;;;121.70;54.75;;;;;;;-3.82;71.39;99496.30;2027478;86;31928;-61
2022/12/14 10:45:58;;;;;;;158.60;72.70;;;;;;;-3.67;71.12;99499.27;2034771;86;33134;-61
2022/12/14 10:49:11;;;;;;;145.43;61.23;;;;;;;-3.53;71.69;99487.42;2028816;87;30096;-60
2022/12/14 10:52:20;;;;;;;148.35;65.12;;;;;;;-3.38;71.05;99483.83;1942162;90;27788;-61
2022/12/14 10:55:32;;;;;;;148.65;65.92;;;;;;;-3.25;71.29;99470.22;2021894;86;28688;-61
2022/12/14 10:58:34;;;;;;;131.22;62.62;;;;;;;-3.14;71.10;99471.46;2017946;86;31207;-61
2022/12/14 11:01:36;;;;;;;134.72;61.98;;;;;;;-3.03;70.75;99454.78;2021461;86;32925;-61
2022/12/14 11:04:58;;;;;;;133.60;62.73;;;;;;;-2.92;70.92;99445.95;2021358;86;30521;-59
2022/12/14 11:08:00;;;;;;;123.15;56.95;;;;;;;-2.81;70.90;99441.08;2014209;88;28536;-59
2022/12/14 11:11:14;;;;;;;134.30;63.28;;;;;;;-2.68;70.26;99430.91;2020986;86;28693;-59
2022/12/14 11:14:17;;;;;;;137.15;61.37;;;;;;;-2.60;70.66;99431.68;2020389;86;31215;-59
2022/12/14 11:17:41;;;;;;;118.22;53.60;;;;;;;-2.44;70.68;99427.58;2021373;86;32979;-59
2022/12/14 11:21:03;;;;;;;129.43;58.73;;;;;;;-2.41;69.41;99415.75;2022991;86;29969;-59
2022/12/14 11:24:06;;;;;;;118.25;56.90;;;;;;;-2.46;69.79;99405.75;2004169;86;27741;-59
2022/12/14 11:27:09;;;;;;;123.80;55.40;;;;;;;-2.46;69.37;99410.56;1928302;90;29268;-59
2022/12/14 11:30:15;;;;;;;119.85;55.00;;;;;;;-2.42;69.92;99400.91;1969176;88;31997;-59
2022/12/14 11:33:17;;;;;;;123.75;55.48;;;;;;;-2.39;69.64;99393.00;1983486;88;33799;-59
2022/12/14 11:36:40;;;;;;;100.55;48.60;;;;;;;-2.35;69.71;99388.16;2006871;87;29898;-59
2022/12/14 11:39:42;;;;;;;118.13;55.00;;;;;;;-2.32;69.07;99376.75;2035156;86;27706;-59
2022/12/14 11:42:49;;;;;;;113.15;54.18;;;;;;;-2.30;69.48;99376.29;2035277;86;28813;-59
2022/12/14 11:45:55;;;;;;;108.55;50.12;;;;;;;-2.19;69.62;99385.34;2035385;86;31803;-59
2022/12/14 11:48:56;;;;;;;118.55;55.35;;;;;;;-2.11;69.37;99375.60;2008003;87;32999;-59
2022/12/14 11:52:19;;;;;;;109.20;52.00;;;;;;;-1.99;69.46;99357.52;2025250;86;29432;-59
2022/12/14 11:55:22;;;;;;;107.80;52.10;;;;;;;-1.96;68.87;99350.92;2030645;86;27748;-59
2022/12/14 11:58:31;;;;;;;110.08;52.05;;;;;;;-1.90;69.02;99346.03;2035381;86;28789;-60
2022/12/14 12:01:33;;;;;;;122.72;59.08;;;;;;;-1.83;68.99;99337.19;2034185;86;31430;-59
2022/12/14 12:04:41;;;;;;;103.10;47.27;;;;;;;-1.72;69.12;99335.69;2011784;87;33341;-60
2022/12/14 12:07:54;;;;;;;94.03;46.83;;;;;;;-1.67;68.25;99343.06;2035880;85;29387;-59
2022/12/14 12:10:58;;;;;;;93.47;46.48;;;;;;;-1.69;68.44;99343.09;2034795;85;27760;-58
2022/12/14 12:14:07;;;;;;;93.62;46.33;;;;;;;-1.65;68.48;99335.18;2034995;86;29531;-60
2022/12/14 12:17:38;;;;;;;101.40;49.55;;;;;;;-1.63;68.13;99332.94;2035046;86;31195;-60
2022/12/14 12:20:54;;;;;;;88.45;43.63;;;;;;;-1.62;68.40;99322.86;2035080;86;33010;-59
2022/12/14 12:24:35;;;;;;;96.20;47.43;;;;;;;-1.58;68.05;99314.48;2068318;85;30706;-59
2022/12/14 12:27:38;;;;;;;94.62;44.75;;;;;;;-1.55;68.33;99306.55;2061803;85;27735;-59
2022/12/14 12:30:44;;;;;;;93.78;45.20;;;;;;;-1.51;67.92;99292.48;2063423;85;28727;-59
2022/12/14 12:34:11;;;;;;;85.77;42.55;;;;;;;-1.46;68.19;99279.27;2064195;85;31031;-59
2022/12/14 12:37:21;;;;;;;71.85;38.60;;;;;;;-1.43;68.07;99271.34;2061883;84;32818;-59
2022/12/14 12:40:33;;;;;;;77.17;38.88;;;;;;;-1.40;67.68;99266.02;2028365;87;30400;-58
2022/12/14 12:44:06;;;;;;;81.60;40.58;;;;;;;-1.36;67.77;99265.07;2030008;87;27752;-59
2022/12/14 12:47:25;;;;;;;75.87;38.17;;;;;;;-1.33;67.68;99254.98;2063236;86;28675;-58
2022/12/14 12:50:33;;;;;;;78.70;39.40;;;;;;;-1.36;67.44;99253.25;2063304;86;31034;-57
2022/12/14 12:53:42;;;;;;;91.08;42.40;;;;;;;-1.34;67.16;99242.73;2044758;86;33339;-58
2022/12/14 12:56:48;;;;;;;71.12;37.25;;;;;;;-1.34;67.31;99234.39;2064902;86;30656;-58
2022/12/14 12:59:53;;;;;;;71.85;35.90;;;;;;;-1.33;67.23;99236.13;2065309;86;27615;-59
2022/12/14 13:03:11;;;;;;;;;;;;;;;-1.39;66.70;99236.22;2033263;87;28371;-58
2022/12/14 13:06:26;;;;;;;76.50;36.28;;;;;;;-1.43;66.57;99238.05;2030745;87;31449;-60
2022/12/14 13:13:15;;;;;;;86.10;38.20;;;;;;;-1.51;66.43;99237.77;2062697;85;30249;-59
2022/12/14 13:16:23;;;;;;;82.75;38.28;;;;;;;-1.48;66.77;99231.15;2062730;86;27643;-60
2022/12/14 13:19:47;;;;;;;72.60;37.35;;;;;;;-1.46;66.73;99224.97;1994773;89;28714;-60
2022/12/14 13:23:20;;;;;;;77.65;38.25;;;;;;;-1.42;66.37;99207.41;2031031;86;30948;-59
2022/12/14 13:26:58;;;;;;;71.00;35.67;;;;;;;-1.38;66.45;99206.00;2064215;84;33114;-61
2022/12/14 13:30:28;;;;;;;60.58;30.30;;;;;;;-1.34;66.34;99198.92;2062156;86;28766;-61
2022/12/14 13:33:59;;;;;;;68.95;33.10;;;;;;;-1.32;65.71;99200.23;2063907;85;28013;-60
2022/12/14 13:37:39;;;;;;;53.13;26.93;;;;;;;-1.24;66.71;99190.42;2036419;86;27246;-60
2022/12/14 13:41:00;;;;;;;68.97;31.15;;;;;;;-1.17;65.24;99182.84;2013610;86;27790;-61
2022/12/14 13:44:16;;;;;;;54.90;29.60;;;;;;;-1.22;65.52;99181.59;2037334;86;33032;-61
2022/12/14 13:47:23;;;;;;;62.93;31.57;;;;;;;-1.24;65.40;99179.45;2027514;87;45049;-61
2022/12/14 13:50:39;;;;;;;55.15;26.27;;;;;;;-1.22;65.53;99184.23;2005974;88;27750;-61
2022/12/14 13:53:47;;;;;;;66.72;33.53;;;;;;;-1.25;64.57;99192.20;1984939;88;29947;-60
2022/12/14 13:57:13;;;;;;;66.60;33.90;;;;;;;-1.25;65.39;99198.77;1984940;88;31871;-61
2022/12/14 14:00:56;;;;;;;69.90;36.48;;;;;;;-1.25;65.26;99193.51;1797975;97;33753;-60
2022/12/14 14:04:27;;;;;;;73.72;34.78;;;;;;;-1.22;65.52;99192.11;1766379;98;29391;-60
2022/12/14 14:07:52;;;;;;;75.67;35.92;;;;;;;-1.15;65.67;99185.43;1791308;97;27943;-59
2022/12/14 14:14:46;;;;;;;68.70;34.43;;;;;;;-1.17;64.81;99178.91;1878309;93;31800;-60
2022/12/14 14:18:06;;;;;;;62.43;30.95;;;;;;;-1.15;64.79;99170.98;1832352;95;28278;-60
2022/12/14 14:21:50;;;;;;;68.37;34.30;;;;;;;-1.25;63.99;99149.27;1866350;93;27854;-59
2022/12/14 14:24:59;;;;;;;73.97;36.53;;;;;;;-1.32;64.38;99152.47;1726549;101;27782;-60
2022/12/14 14:28:00;;;;;;;71.60;36.85;;;;;;;-1.35;64.85;99151.22;1716260;102;29717;-61
2022/12/14 14:31:03;;;;;;;79.95;39.08;;;;;;;-1.34;65.08;99146.84;1719366;102;32354;-61
2022/12/14 14:34:05;;;;;;;66.33;32.98;;;;;;;-1.32;65.04;99151.16;1719708;102;34291;-59
2022/12/14 14:37:24;;;;;;;81.78;38.25;;;;;;;-1.33;64.53;99142.86;1739561;100;29740;-61
2022/12/14 14:40:30;;;;;;;77.82;36.45;;;;;;;-1.36;64.92;99141.59;1746436;100;27802;-60
2022/12/14 14:43:35;;;;;;;66.60;34.23;;;;;;;-1.43;64.40;99132.13;1742407;100;29391;-62
2022/12/14 14:46:41;;;;;;;81.05;39.67;;;;;;;-1.53;64.29;99123.55;1754260;100;32216;-60